createdAt,value
2019-05-03T00:00:59.764Z,94.50
2019-05-03T00:03:31.919Z,94.50
2019-05-03T00:06:05.458Z,94.50
2019-05-03T00:08:36.832Z,94.50
2019-05-03T00:11:08.841Z,94.60
2019-05-03T00:13:39.281Z,95.00
2019-05-03T00:16:13.729Z,95.20
2019-05-03T00:18:43.995Z,95.50
2019-05-03T00:21:14.455Z,95.90
2019-05-03T00:23:44.757Z,95.80
2019-05-03T00:26:38.809Z,96.00
2019-05-03T00:29:05.368Z,95.60
2019-05-03T00:31:35.679Z,95.50
2019-05-03T00:34:10.275Z,95.60
2019-05-03T00:36:48.068Z,95.70
2019-05-03T00:39:21.597Z,95.90
2019-05-03T00:41:52.133Z,95.80
2019-05-03T00:44:22.588Z,95.80
2019-05-03T00:46:52.907Z,95.90
2019-05-03T00:49:23.205Z,95.90
2019-05-03T00:51:53.481Z,96.00
2019-05-03T00:54:32.788Z,96.00
2019-05-03T00:57:12.087Z,96.30
2019-05-03T00:59:42.515Z,96.40
2019-05-03T01:02:12.879Z,96.40
2019-05-03T01:04:43.097Z,96.50
2019-05-03T01:07:13.423Z,96.60
2019-05-03T01:09:43.805Z,96.80
2019-05-03T01:12:25.275Z,96.70
2019-05-03T01:15:02.063Z,96.80
2019-05-03T01:17:34.064Z,96.80
2019-05-03T01:20:07.613Z,96.80
2019-05-03T01:22:37.963Z,97.00
2019-05-03T01:25:12.047Z,97.10
2019-05-03T01:27:43.573Z,97.40
2019-05-03T01:30:16.544Z,97.60
2019-05-03T01:32:53.714Z,97.50
2019-05-03T01:35:24.033Z,97.50
2019-05-03T01:37:55.812Z,97.60
2019-05-03T01:40:26.270Z,97.60
2019-05-03T01:42:56.735Z,97.60
2019-05-03T01:45:27.096Z,98.00
2019-05-03T01:48:02.073Z,97.60
2019-05-03T01:50:37.004Z,97.60
2019-05-03T01:53:17.890Z,97.70
2019-05-03T01:55:52.244Z,97.70
2019-05-03T01:58:23.629Z,97.80
2019-05-03T02:00:55.711Z,97.80
2019-05-03T02:03:32.446Z,97.90
2019-05-03T02:06:11.921Z,97.80
2019-05-03T02:08:48.266Z,98.10
2019-05-03T02:11:18.572Z,98.00
2019-05-03T02:13:48.909Z,97.60
2019-05-03T02:16:19.400Z,97.60
2019-05-03T02:18:51.787Z,97.50
2019-05-03T02:21:22.364Z,97.50
2019-05-03T02:23:52.678Z,97.50
2019-05-03T02:26:26.726Z,97.50
2019-05-03T02:28:57.135Z,97.50
2019-05-03T02:31:27.425Z,97.50
2019-05-03T02:33:57.770Z,97.50
2019-05-03T02:36:28.181Z,97.50
2019-05-03T02:39:02.687Z,97.50
2019-05-03T02:41:33.646Z,97.40
2019-05-03T02:44:06.147Z,97.30
2019-05-03T02:46:37.530Z,97.40
2019-05-03T02:49:09.438Z,97.40
2019-05-03T02:51:39.716Z,97.30
2019-05-03T02:54:09.998Z,97.40
2019-05-03T02:56:46.325Z,97.50
2019-05-03T02:59:19.381Z,97.50
2019-05-03T03:01:50.154Z,97.60
2019-05-03T03:04:20.497Z,97.70
2019-05-03T03:06:52.004Z,97.80
2019-05-03T03:09:29.355Z,97.80
2019-05-03T03:11:59.662Z,98.00
2019-05-03T03:14:32.688Z,98.00
2019-05-03T03:17:06.655Z,98.20
2019-05-03T03:19:38.158Z,98.20
2019-05-03T03:22:25.888Z,98.20
2019-05-03T03:24:58.633Z,98.30
2019-05-03T03:27:35.964Z,98.30
2019-05-03T03:30:38.121Z,98.40
2019-05-03T03:33:10.890Z,98.30
2019-05-03T03:35:49.436Z,98.40
2019-05-03T03:38:20.298Z,98.50
2019-05-03T03:40:55.267Z,98.40
2019-05-03T03:43:25.912Z,98.40
2019-05-03T03:45:57.399Z,98.50
2019-05-03T03:48:41.020Z,98.40
2019-05-03T03:51:26.143Z,98.40
2019-05-03T03:56:56.031Z,98.50
2019-05-03T03:59:18.659Z,98.60
2019-05-03T04:01:55.085Z,98.50
2019-05-03T04:04:29.421Z,98.60
2019-05-03T04:07:11.943Z,98.50
2019-05-03T04:09:45.388Z,98.50
2019-05-03T04:12:16.524Z,98.20
2019-05-03T04:14:52.781Z,98.10
2019-05-03T04:17:26.298Z,98.10
2019-05-03T04:19:58.029Z,97.90
2019-05-03T04:22:28.338Z,97.90
2019-05-03T04:25:00.124Z,97.90
2019-05-03T04:27:30.423Z,97.80
2019-05-03T04:30:12.643Z,97.70
2019-05-03T04:32:45.309Z,97.80
2019-05-03T04:35:21.968Z,97.80
2019-05-03T04:37:52.245Z,97.80
2019-05-03T04:40:22.605Z,97.90
2019-05-03T04:42:55.357Z,97.90
2019-05-03T04:45:25.607Z,98.00
2019-05-03T04:47:56.467Z,98.00
2019-05-03T04:50:36.746Z,98.10
2019-05-03T04:53:25.810Z,98.20
2019-05-03T04:55:55.978Z,98.30
2019-05-03T04:58:30.176Z,98.30
2019-05-03T05:01:00.517Z,98.30
2019-05-03T05:03:30.823Z,98.30
2019-05-03T05:06:01.054Z,97.70
2019-05-03T05:08:31.319Z,97.30
2019-05-03T05:11:01.733Z,97.00
2019-05-03T05:13:32.245Z,96.60
2019-05-03T05:16:02.639Z,95.90
2019-05-03T05:18:45.527Z,94.60
2019-05-03T05:21:16.866Z,94.60
2019-05-03T05:23:57.866Z,94.50
2019-05-03T05:26:39.008Z,93.50
2019-05-03T05:29:27.942Z,93.00
2019-05-03T05:31:58.429Z,92.80
2019-05-03T05:34:28.748Z,92.90
2019-05-03T05:36:59.044Z,92.70
2019-05-03T05:39:29.319Z,93.00
2019-05-03T05:41:59.593Z,93.20
2019-05-03T05:44:29.863Z,93.30
2019-05-03T05:47:04.777Z,93.50
2019-05-03T05:49:48.951Z,93.70
2019-05-03T05:52:19.429Z,94.20
2019-05-03T05:55:14.891Z,93.60
2019-05-03T06:00:37.406Z,93.40
2019-05-03T06:03:07.700Z,93.00
2019-05-03T06:05:37.936Z,92.80
2019-05-03T06:08:26.601Z,92.80
2019-05-03T06:11:15.532Z,92.60
2019-05-03T06:13:50.963Z,92.20
2019-05-03T06:16:34.942Z,92.20
2019-05-03T06:19:16.446Z,92.40
2019-05-03T06:22:05.087Z,92.20
2019-05-03T06:24:37.138Z,92.40
2019-05-03T06:27:15.270Z,92.60
2019-05-03T06:29:47.161Z,92.90
2019-05-03T06:32:36.867Z,92.80
2019-05-03T06:35:07.852Z,92.90
2019-05-03T06:37:39.738Z,93.00
2019-05-03T06:40:10.087Z,93.20
2019-05-03T06:42:51.439Z,93.10
2019-05-03T06:45:18.523Z,93.40
2019-05-03T06:47:50.103Z,93.60
2019-05-03T06:50:27.535Z,94.30
2019-05-03T06:52:52.411Z,94.40
2019-05-03T06:55:24.629Z,94.20
2019-05-03T06:57:54.766Z,94.50
2019-05-03T07:00:45.239Z,94.80
2019-05-03T07:03:35.906Z,94.50
2019-05-03T07:06:39.418Z,95.10
2019-05-03T07:09:19.516Z,95.10
2019-05-03T07:11:55.949Z,95.10
2019-05-03T07:14:26.775Z,95.00
2019-05-03T07:16:56.945Z,95.30
2019-05-03T07:19:27.231Z,95.10
2019-05-03T07:21:57.529Z,95.40
2019-05-03T07:24:27.731Z,95.30
2019-05-03T07:26:59.159Z,94.90
2019-05-03T07:29:31.060Z,95.40
2019-05-03T07:32:05.263Z,95.60
2019-05-03T07:34:37.352Z,96.00
2019-05-03T07:37:07.744Z,95.70
2019-05-03T07:39:37.981Z,95.80
2019-05-03T07:42:08.338Z,96.20
2019-05-03T07:44:41.517Z,95.20
2019-05-03T07:47:11.873Z,94.90
2019-05-03T07:49:44.549Z,94.70
2019-05-03T07:52:14.822Z,94.60
2019-05-03T07:54:45.298Z,93.70
2019-05-03T07:57:25.476Z,93.90
2019-05-03T07:59:56.086Z,93.90
2019-05-03T08:02:27.559Z,93.80
2019-05-03T08:05:05.341Z,93.70
2019-05-03T08:07:35.757Z,93.50
2019-05-03T08:10:08.114Z,92.50
2019-05-03T08:12:38.557Z,92.60
2019-05-03T08:15:09.010Z,92.90
2019-05-03T08:17:46.595Z,92.90
2019-05-03T08:20:16.867Z,93.20
2019-05-03T08:22:47.101Z,93.00
2019-05-03T08:25:17.488Z,92.40
2019-05-03T08:27:47.785Z,92.30
2019-05-03T08:30:19.622Z,92.50
2019-05-03T08:33:07.940Z,92.10
2019-05-03T08:35:50.762Z,92.10
2019-05-03T08:38:21.049Z,91.70
2019-05-03T08:40:54.706Z,90.50
2019-05-03T08:43:27.683Z,89.30
2019-05-03T08:45:58.083Z,90.30
2019-05-03T08:48:28.344Z,90.20
2019-05-03T08:51:00.799Z,88.70
2019-05-03T08:53:30.721Z,89.00
2019-05-03T08:56:01.137Z,86.80
2019-05-03T08:58:32.382Z,87.80
2019-05-03T09:01:05.300Z,88.20
2019-05-03T09:03:37.971Z,87.80
2019-05-03T09:06:07.053Z,88.70
2019-05-03T09:08:37.423Z,90.00
2019-05-03T09:11:09.343Z,90.30
2019-05-03T09:13:44.988Z,90.50
2019-05-03T09:16:15.585Z,89.70
2019-05-03T09:18:45.821Z,90.20
2019-05-03T09:21:16.145Z,90.30
2019-05-03T09:23:46.405Z,89.50
2019-05-03T09:26:16.715Z,90.10
2019-05-03T09:28:47.008Z,90.20
2019-05-03T09:31:17.377Z,90.30
2019-05-03T09:33:47.659Z,90.40
2019-05-03T09:36:17.879Z,90.90
2019-05-03T09:38:48.542Z,91.00
2019-05-03T09:41:18.975Z,91.00
2019-05-03T09:43:49.163Z,91.60
2019-05-03T09:46:19.470Z,91.40
2019-05-03T09:48:50.748Z,91.00
2019-05-03T09:51:21.054Z,90.70
2019-05-03T09:53:55.887Z,90.70
2019-05-03T09:56:53.515Z,90.30
2019-05-03T09:59:16.297Z,90.50
2019-05-03T10:01:46.669Z,90.70
2019-05-03T10:04:18.187Z,90.70
2019-05-03T10:06:49.039Z,90.20
2019-05-03T10:09:19.295Z,91.00
2019-05-03T10:11:49.578Z,90.60
2019-05-03T10:14:20.429Z,90.70
2019-05-03T10:16:54.624Z,90.60
2019-05-03T10:19:34.814Z,90.50
2019-05-03T10:21:55.304Z,90.40
2019-05-03T10:24:25.561Z,90.30
2019-05-03T10:26:56.367Z,89.50
2019-05-03T10:29:26.717Z,88.40
2019-05-03T10:32:16.129Z,89.20
2019-05-03T10:35:06.135Z,87.60
2019-05-03T10:37:36.517Z,86.90
2019-05-03T10:40:08.272Z,85.00
2019-05-03T10:42:39.196Z,83.20
2019-05-03T10:45:10.112Z,82.20
2019-05-03T10:47:40.379Z,82.30
2019-05-03T10:50:11.704Z,81.80
2019-05-03T10:52:44.668Z,82.50
2019-05-03T10:55:17.096Z,83.50
2019-05-03T10:57:48.874Z,84.00
2019-05-03T11:00:44.260Z,84.30
2019-05-03T11:02:55.057Z,85.20
2019-05-03T11:05:25.737Z,83.30
2019-05-03T11:07:55.951Z,83.10
2019-05-03T11:10:26.609Z,84.50
2019-05-03T11:12:56.851Z,84.20
2019-05-03T11:15:27.249Z,82.00
2019-05-03T11:17:58.053Z,81.40
2019-05-03T11:20:34.623Z,81.80
2019-05-03T11:23:06.762Z,82.50
2019-05-03T11:25:37.585Z,83.00
2019-05-03T11:28:15.095Z,82.70
2019-05-03T11:30:56.442Z,83.90
2019-05-03T11:33:39.013Z,83.60
2019-05-03T11:36:10.939Z,82.80
2019-05-03T11:38:42.784Z,79.10
2019-05-03T11:41:13.147Z,78.00
2019-05-03T11:43:44.390Z,81.00
2019-05-03T11:46:14.780Z,82.60
2019-05-03T11:48:45.484Z,83.00
2019-05-03T11:51:16.095Z,83.40
2019-05-03T11:53:47.138Z,81.00
2019-05-03T11:56:17.465Z,80.50
2019-05-03T11:58:47.724Z,79.70
2019-05-03T12:01:20.270Z,76.70
2019-05-03T12:03:51.207Z,79.00
2019-05-03T12:06:21.670Z,77.70
2019-05-03T12:08:51.970Z,81.00
2019-05-03T12:11:24.326Z,80.40
2019-05-03T12:14:02.318Z,80.40
2019-05-03T12:17:08.233Z,80.40
2019-05-03T12:19:13.260Z,78.70
2019-05-03T12:21:33.481Z,75.80
2019-05-03T12:24:06.343Z,75.90
2019-05-03T12:26:43.891Z,76.10
2019-05-03T12:29:10.169Z,76.40
2019-05-03T12:31:40.709Z,76.70
2019-05-03T12:34:11.151Z,76.70
2019-05-03T12:36:41.412Z,75.10
2019-05-03T12:39:24.189Z,74.30
2019-05-03T12:41:43.489Z,75.30
2019-05-03T12:44:15.255Z,74.20
2019-05-03T12:46:45.727Z,71.90
2019-05-03T12:49:16.026Z,73.20
2019-05-03T12:51:47.499Z,73.00
2019-05-03T12:54:17.818Z,71.40
2019-05-03T12:56:48.186Z,71.80
2019-05-03T12:59:23.330Z,71.80
2019-05-03T13:01:58.347Z,71.30
2019-05-03T13:04:31.236Z,72.20
2019-05-03T13:07:06.241Z,67.60
2019-05-03T13:09:36.857Z,67.70
2019-05-03T13:12:15.910Z,66.90
2019-05-03T13:14:46.182Z,66.60
2019-05-03T13:17:18.108Z,67.50
2019-05-03T13:19:48.384Z,68.30
2019-05-03T13:22:21.583Z,67.70
2019-05-03T13:24:51.865Z,65.70
2019-05-03T13:27:22.181Z,65.20
2019-05-03T13:29:52.447Z,64.00
2019-05-03T13:32:22.681Z,64.20
2019-05-03T13:34:52.927Z,65.60
2019-05-03T13:37:26.169Z,63.60
2019-05-03T13:39:56.424Z,65.20
2019-05-03T13:42:26.922Z,66.20
2019-05-03T13:44:57.521Z,66.50
2019-05-03T13:47:30.698Z,66.00
2019-05-03T13:50:01.256Z,67.50
2019-05-03T13:52:31.571Z,68.00
2019-05-03T13:55:06.061Z,66.70
2019-05-03T13:57:36.374Z,68.50
2019-05-03T14:00:08.129Z,68.00
2019-05-03T14:02:38.448Z,67.70
2019-05-03T14:05:08.845Z,66.70
2019-05-03T14:07:39.153Z,66.90
2019-05-03T14:10:09.625Z,68.60
2019-05-03T14:12:39.928Z,66.10
2019-05-03T14:15:16.802Z,65.10
2019-05-03T14:17:47.542Z,65.00
2019-05-03T14:20:26.089Z,61.60
2019-05-03T14:22:56.167Z,59.90
2019-05-03T14:25:26.439Z,59.40
2019-05-03T14:27:59.587Z,60.70
2019-05-03T14:30:28.792Z,61.20
2019-05-03T14:32:59.099Z,60.50
2019-05-03T14:35:29.363Z,61.30
2019-05-03T14:38:00.260Z,59.10
2019-05-03T14:40:30.446Z,57.90
2019-05-03T14:43:00.748Z,57.80
2019-05-03T14:45:30.995Z,59.60
2019-05-03T14:48:01.872Z,57.10
2019-05-03T14:50:32.221Z,55.10
2019-05-03T14:53:04.913Z,56.50
2019-05-03T14:55:38.926Z,57.30
2019-05-03T14:58:22.681Z,57.50
2019-05-03T15:00:57.263Z,58.40
2019-05-03T15:03:30.365Z,58.30
2019-05-03T15:06:00.619Z,56.60
2019-05-03T15:08:30.930Z,54.60
2019-05-03T15:11:05.307Z,54.70
2019-05-03T15:13:36.938Z,56.40
2019-05-03T15:16:07.209Z,55.60
2019-05-03T15:18:37.542Z,55.20
2019-05-03T15:21:07.826Z,56.70
2019-05-03T15:23:38.121Z,57.80
2019-05-03T15:26:08.832Z,57.00
2019-05-03T15:28:39.059Z,57.00
2019-05-03T15:31:09.242Z,58.90
2019-05-03T15:33:39.484Z,59.00
2019-05-03T15:36:11.168Z,60.00
2019-05-03T15:38:41.797Z,60.40
2019-05-03T15:41:12.014Z,59.10
2019-05-03T15:43:48.082Z,58.30
2019-05-03T15:46:19.867Z,59.00
2019-05-03T15:48:51.728Z,59.60
2019-05-03T15:51:21.997Z,59.60
2019-05-03T15:54:01.306Z,60.00
2019-05-03T15:56:31.575Z,58.30
2019-05-03T15:59:01.884Z,57.10
2019-05-03T16:01:35.367Z,58.10
2019-05-03T16:04:07.961Z,58.60
2019-05-03T16:06:38.233Z,58.60
2019-05-03T16:09:08.481Z,59.60
2019-05-03T16:11:39.358Z,60.00
2019-05-03T16:14:10.636Z,59.00
2019-05-03T16:16:40.909Z,60.40
2019-05-03T16:19:11.216Z,57.80
2019-05-03T16:21:41.429Z,58.70
2019-05-03T16:24:11.983Z,56.70
2019-05-03T16:27:00.083Z,57.00
2019-05-03T16:29:33.672Z,56.60
2019-05-03T16:32:05.095Z,56.20
2019-05-03T16:34:35.170Z,56.00
2019-05-03T16:37:05.563Z,56.50
2019-05-03T16:39:35.744Z,55.00
2019-05-03T16:42:07.506Z,54.00
2019-05-03T16:44:37.768Z,53.90
2019-05-03T16:47:08.087Z,54.00
2019-05-03T16:49:38.381Z,52.20
2019-05-03T16:52:11.741Z,51.80
2019-05-03T16:54:42.353Z,52.90
2019-05-03T16:57:15.255Z,54.10
2019-05-03T16:59:46.305Z,55.70
2019-05-03T17:02:17.380Z,56.30
2019-05-03T17:04:49.448Z,57.00
2019-05-03T17:07:44.695Z,59.00
2019-05-03T17:10:15.440Z,60.30
2019-05-03T17:12:45.764Z,62.50
2019-05-03T17:15:16.564Z,61.80
2019-05-03T17:17:46.935Z,62.40
2019-05-03T17:20:17.328Z,63.20
2019-05-03T17:22:51.291Z,63.30
2019-05-03T17:25:20.711Z,64.50
2019-05-03T17:27:50.883Z,64.50
2019-05-03T17:30:21.576Z,65.10
2019-05-03T17:32:52.261Z,64.60
2019-05-03T17:35:22.581Z,64.80
2019-05-03T17:37:54.548Z,64.50
2019-05-03T17:40:32.168Z,65.30
2019-05-03T17:43:09.822Z,65.50
2019-05-03T17:45:41.721Z,65.10
2019-05-03T17:48:11.995Z,65.40
2019-05-03T17:50:42.351Z,65.40
2019-05-03T17:53:14.714Z,66.20
2019-05-03T17:55:46.816Z,66.60
2019-05-03T17:58:18.665Z,67.10
2019-05-03T18:00:50.568Z,67.10
2019-05-03T18:03:21.938Z,67.30
2019-05-03T18:05:54.197Z,67.70
2019-05-03T18:08:35.539Z,67.90
2019-05-03T18:11:14.745Z,68.40
2019-05-03T18:13:46.291Z,68.80
2019-05-03T18:16:16.616Z,69.30
2019-05-03T18:18:46.891Z,69.40
2019-05-03T18:21:17.214Z,69.50
2019-05-03T18:23:47.886Z,69.90
2019-05-03T18:26:19.805Z,69.20
2019-05-03T18:28:50.154Z,68.40
2019-05-03T18:31:20.480Z,68.70
2019-05-03T18:33:50.781Z,68.50
2019-05-03T18:36:22.144Z,68.60
2019-05-03T18:39:01.642Z,68.50
2019-05-03T18:41:39.537Z,68.90
2019-05-03T18:44:11.823Z,69.20
2019-05-03T18:46:56.683Z,69.20
2019-05-03T18:49:32.672Z,69.30
2019-05-03T18:52:07.141Z,70.10
2019-05-03T18:54:37.443Z,71.30
2019-05-03T18:57:25.428Z,70.70
2019-05-03T19:00:08.197Z,71.40
2019-05-03T19:02:38.971Z,71.80
2019-05-03T19:05:24.329Z,72.70
2019-05-03T19:08:04.477Z,73.50
2019-05-03T19:10:39.580Z,74.60
2019-05-03T19:13:18.852Z,75.20
2019-05-03T19:15:49.378Z,76.10
2019-05-03T19:18:24.563Z,76.90
2019-05-03T19:20:55.143Z,77.60
2019-05-03T19:23:25.401Z,78.00
2019-05-03T19:25:55.656Z,78.10
2019-05-03T19:28:29.591Z,78.30
2019-05-03T19:31:12.100Z,78.70
2019-05-03T19:33:55.128Z,79.00
2019-05-03T19:36:37.584Z,79.50
2019-05-03T19:39:15.485Z,79.80
2019-05-03T19:41:55.870Z,80.60
2019-05-03T19:44:40.663Z,81.20
2019-05-03T19:47:10.918Z,81.60
2019-05-03T19:49:41.229Z,83.00
2019-05-03T19:52:14.461Z,82.60
2019-05-03T19:54:56.620Z,83.40
2019-05-03T19:57:57.907Z,82.90
2019-05-03T20:00:49.895Z,83.60
2019-05-03T20:03:41.280Z,83.80
2019-05-03T20:06:19.125Z,84.20
2019-05-03T20:08:59.853Z,83.80
2019-05-03T20:11:31.265Z,84.20
2019-05-03T20:14:01.555Z,85.10
2019-05-03T20:16:31.823Z,84.40
2019-05-03T20:19:15.342Z,84.80
2019-05-03T20:21:34.507Z,85.10
2019-05-03T20:24:05.631Z,85.30
2019-05-03T20:26:36.449Z,85.30
2019-05-03T20:29:06.851Z,85.40
2019-05-03T20:31:51.496Z,85.20
2019-05-03T20:34:21.953Z,85.00
2019-05-03T20:36:52.286Z,84.70
2019-05-03T20:39:22.540Z,84.20
2019-05-03T20:41:54.871Z,85.00
2019-05-03T20:44:26.322Z,85.50
2019-05-03T20:47:07.138Z,85.10
2019-05-03T20:49:37.512Z,84.80
2019-05-03T20:52:07.869Z,85.00
2019-05-03T20:54:39.576Z,84.80
2019-05-03T20:57:09.936Z,85.10
2019-05-03T20:59:45.275Z,84.70
2019-05-03T21:02:15.218Z,85.80
2019-05-03T21:04:45.123Z,84.90
2019-05-03T21:07:15.461Z,85.00
2019-05-03T21:09:46.710Z,84.90
2019-05-03T21:12:18.778Z,85.20
2019-05-03T21:14:49.067Z,85.10
2019-05-03T21:17:37.657Z,85.50
2019-05-03T21:20:12.528Z,85.70
2019-05-03T21:22:44.390Z,85.90
2019-05-03T21:25:16.282Z,86.40
2019-05-03T21:27:46.548Z,86.20
2019-05-03T21:30:17.078Z,86.70
2019-05-03T21:32:47.370Z,86.10
2019-05-03T21:35:17.661Z,85.90
2019-05-03T21:37:47.945Z,86.10
2019-05-03T21:40:18.229Z,85.30
2019-05-03T21:42:48.427Z,84.80
2019-05-03T21:45:20.398Z,85.30
2019-05-03T21:47:54.601Z,85.30
2019-05-03T21:50:36.433Z,85.30
2019-05-03T21:53:06.783Z,85.70
2019-05-03T21:55:44.813Z,84.90
2019-05-03T21:58:16.553Z,85.10
2019-05-03T22:00:51.275Z,85.00
2019-05-03T22:03:30.889Z,85.10
2019-05-03T22:06:01.125Z,85.20
2019-05-03T22:08:34.930Z,85.20
2019-05-03T22:11:05.380Z,85.30
2019-05-03T22:13:38.827Z,85.80
2019-05-03T22:16:18.143Z,85.60
2019-05-03T22:18:48.566Z,85.50
2019-05-03T22:21:27.516Z,86.10
2019-05-03T22:23:59.412Z,86.20
2019-05-03T22:27:04.911Z,86.20
2019-05-03T22:29:35.905Z,86.40
2019-05-03T22:32:06.240Z,87.10
2019-05-03T22:34:36.476Z,87.50
2019-05-03T22:37:14.328Z,87.60
2019-05-03T22:39:50.129Z,87.60
2019-05-03T22:42:22.836Z,88.20
2019-05-03T22:44:55.209Z,87.60
2019-05-03T22:47:31.844Z,88.20
2019-05-03T22:50:02.302Z,88.20
2019-05-03T22:52:34.817Z,88.60
2019-05-03T22:55:06.819Z,88.20
2019-05-03T22:57:37.125Z,88.10
2019-05-03T23:00:08.329Z,88.00
2019-05-03T23:02:40.111Z,88.00
2019-05-03T23:05:10.549Z,88.20
2019-05-03T23:07:41.057Z,87.90
2019-05-03T23:10:11.511Z,88.10
2019-05-03T23:12:41.771Z,88.20
2019-05-03T23:15:24.507Z,88.50
2019-05-03T23:18:02.666Z,88.30
2019-05-03T23:20:41.067Z,88.60
2019-05-03T23:23:14.465Z,88.10
2019-05-03T23:25:46.237Z,87.80
2019-05-03T23:28:16.593Z,87.40
2019-05-03T23:30:55.800Z,87.30
2019-05-03T23:33:26.229Z,86.60
2019-05-03T23:35:56.830Z,86.70
2019-05-03T23:38:27.156Z,86.30
2019-05-03T23:41:00.542Z,86.50
2019-05-03T23:43:31.232Z,86.30
2019-05-03T23:46:01.744Z,86.10
2019-05-03T23:48:44.656Z,86.40
2019-05-03T23:51:34.956Z,86.00
2019-05-03T23:54:05.619Z,85.60
2019-05-03T23:56:36.393Z,85.70
2019-05-03T23:59:06.965Z,85.80
